Terminal Aerodrome Forecast
Issued by NWS

Home | Current Version | Previous Version | Text Only | Print | Product List | Glossary On
Versions: 1 2 3 4 5 6 7 8 9 10 11 12 13 14 15 16 17 18 19 20 21 22 23 24 25 26 27 28 29 30 31 32 33 34
000
FTUS45 KBOU 251121
TAFBJC
TAF
KBJC 251121Z 2512/2612 17005KT P6SM BKN090
     FM251400 VRB05KT P6SM SCT090
     FM251700 05007KT P6SM SCT070
     FM260100 VRB04KT P6SM FEW070
     FM260400 25006KT P6SM SKC=

USA.gov is the U.S. government's official web portal to all federal, state and local government web resources and services.